Time;durP1;ratioP1;P1;durP2;ratioP2;P2;SDS_P1;SDS_P2;PMS_P1;PMS_P2;Temp;Humidity;BMP_temperature;BMP_pressure;BME280_temperature;BME280_humidity;BME280_pressure;Samples;Min_cycle;Max_cycle;Signal;HPM_P1;HPM_P2
2021/08/31 00:01:41;;;;;;;4.25;3.40;;;23.00;62.20;;;;;;5052506;28;20514;-48
2021/08/31 00:04:07;;;;;;;4.70;3.70;;;23.00;62.20;;;;;;5051131;28;20049;-48
2021/08/31 00:06:32;;;;;;;6.03;3.60;;;23.00;62.10;;;;;;5051453;28;20044;-50
2021/08/31 00:08:58;;;;;;;4.75;3.70;;;23.00;62.00;;;;;;5050743;28;20029;-48
2021/08/31 00:11:24;;;;;;;4.32;3.10;;;22.90;62.10;;;;;;5051703;28;20025;-47
2021/08/31 00:13:50;;;;;;;6.00;3.15;;;23.00;62.10;;;;;;5050587;28;20379;-50
2021/08/31 00:16:16;;;;;;;5.53;3.35;;;23.00;62.10;;;;;;5049958;28;20394;-48
2021/08/31 00:18:43;;;;;;;4.13;3.25;;;22.90;61.90;;;;;;5051813;28;20033;-49
2021/08/31 00:21:09;;;;;;;5.55;3.42;;;22.90;62.00;;;;;;5051001;28;20021;-51
2021/08/31 00:23:35;;;;;;;4.50;3.65;;;22.90;62.00;;;;;;5051566;28;20365;-48
2021/08/31 00:26:00;;;;;;;4.93;3.10;;;22.90;62.00;;;;;;5050966;28;20033;-47
2021/08/31 00:28:26;;;;;;;5.55;3.75;;;22.90;62.00;;;;;;5050412;28;20028;-51
2021/08/31 00:30:52;;;;;;;3.83;3.40;;;22.90;62.00;;;;;;5051859;28;20108;-49
2021/08/31 00:33:18;;;;;;;5.03;2.95;;;22.90;62.00;;;;;;5050976;28;20037;-51
2021/08/31 00:35:44;;;;;;;6.05;2.92;;;22.90;61.80;;;;;;5051862;28;20036;-48
2021/08/31 00:38:09;;;;;;;4.05;3.25;;;22.90;62.00;;;;;;5050612;28;20041;-48
2021/08/31 00:40:35;;;;;;;4.43;3.50;;;22.90;61.90;;;;;;5051425;28;20021;-49
2021/08/31 00:43:01;;;;;;;4.40;3.67;;;22.90;62.10;;;;;;5050027;28;20036;-48
2021/08/31 00:45:27;;;;;;;3.92;3.53;;;22.90;62.10;;;;;;5051216;28;20035;-49
2021/08/31 00:47:54;;;;;;;5.22;3.65;;;22.80;61.90;;;;;;5055595;28;20029;-51
2021/08/31 00:50:20;;;;;;;7.22;3.33;;;22.90;62.00;;;;;;5055235;28;20056;-52
2021/08/31 00:52:46;;;;;;;3.90;3.20;;;22.90;62.10;;;;;;5055581;28;20025;-51
2021/08/31 00:55:13;;;;;;;3.92;3.28;;;22.80;62.10;;;;;;5054394;28;20048;-50
2021/08/31 00:57:42;;;;;;;3.63;3.28;;;22.80;62.10;;;;;;5055061;28;20543;-48
2021/08/31 01:00:11;;;;;;;3.42;3.13;;;22.80;62.80;;;;;;5054314;28;20498;-50
2021/08/31 01:02:36;;;;;;;4.13;3.40;;;22.80;62.10;;;;;;5055518;28;20059;-48
2021/08/31 01:05:03;;;;;;;4.03;3.42;;;22.80;62.20;;;;;;5054394;28;20143;-50
2021/08/31 01:07:29;;;;;;;4.22;3.30;;;22.80;62.10;;;;;;5053992;28;20037;-48
2021/08/31 01:09:55;;;;;;;4.18;3.50;;;22.80;62.20;;;;;;5054534;28;20050;-48
2021/08/31 01:12:21;;;;;;;5.03;3.95;;;22.80;62.20;;;;;;5055183;28;20025;-49
2021/08/31 01:14:48;;;;;;;4.47;3.33;;;22.70;62.20;;;;;;5054770;28;20154;-48
2021/08/31 01:17:13;;;;;;;4.95;4.03;;;22.70;62.30;;;;;;5054505;28;20033;-49
2021/08/31 01:19:39;;;;;;;4.95;3.78;;;22.70;62.30;;;;;;5054792;28;20062;-53
2021/08/31 01:22:10;;;;;;;4.65;3.60;;;22.70;62.30;;;;;;5054529;28;20033;-48
2021/08/31 01:24:44;;;;;;;4.53;3.75;;;22.80;62.30;;;;;;5054753;28;20036;-48
2021/08/31 01:27:10;;;;;;;4.47;4.00;;;22.70;62.20;;;;;;5054298;28;20108;-53
2021/08/31 01:29:36;;;;;;;4.05;3.60;;;22.70;62.20;;;;;;5054701;28;20065;-48
2021/08/31 01:32:02;;;;;;;4.75;3.72;;;22.80;62.30;;;;;;5054211;28;20112;-49
2021/08/31 01:34:28;;;;;;;5.82;3.70;;;22.80;62.20;;;;;;5054781;28;20029;-51
2021/08/31 01:36:54;;;;;;;4.07;3.63;;;22.70;62.10;;;;;;5053500;28;20025;-48
2021/08/31 01:39:20;;;;;;;4.50;3.78;;;22.70;62.10;;;;;;5052652;28;20033;-49
2021/08/31 01:41:46;;;;;;;4.50;3.80;;;22.70;62.70;;;;;;5054324;28;20025;-49
2021/08/31 01:44:12;;;;;;;4.43;3.60;;;22.80;62.20;;;;;;5053382;28;20041;-48
2021/08/31 01:46:37;;;;;;;4.38;3.60;;;22.70;62.10;;;;;;5054566;28;20041;-50
2021/08/31 01:49:04;;;;;;;5.05;3.60;;;22.70;62.20;;;;;;5053883;28;20048;-48
2021/08/31 01:51:29;;;;;;;6.10;3.92;;;22.70;62.10;;;;;;5054383;28;20032;-50
2021/08/31 01:53:55;;;;;;;5.03;3.90;;;22.80;62.10;;;;;;5054491;28;20020;-51
2021/08/31 01:56:21;;;;;;;6.03;4.22;;;22.70;62.10;;;;;;5053507;28;20025;-49
2021/08/31 01:58:46;;;;;;;3.97;3.58;;;22.70;62.20;;;;;;5054194;28;20487;-49
2021/08/31 02:01:12;;;;;;;5.05;3.92;;;22.70;62.20;;;;;;5053263;28;20148;-51
2021/08/31 02:03:38;;;;;;;4.30;3.55;;;22.70;62.20;;;;;;5054232;28;20383;-51
2021/08/31 02:06:04;;;;;;;5.65;3.85;;;22.70;62.30;;;;;;5053352;28;20037;-48
2021/08/31 02:08:30;;;;;;;4.80;3.70;;;22.70;62.20;;;;;;5054202;28;20036;-49
2021/08/31 02:10:55;;;;;;;5.95;3.40;;;22.70;62.10;;;;;;5053901;28;20053;-50
2021/08/31 02:13:21;;;;;;;4.63;4.10;;;22.70;62.10;;;;;;5053093;28;20028;-49
2021/08/31 02:15:47;;;;;;;5.28;3.95;;;22.70;62.10;;;;;;5053505;28;20029;-51
2021/08/31 02:18:12;;;;;;;5.20;3.92;;;22.70;62.20;;;;;;5053074;28;20472;-53
2021/08/31 02:20:38;;;;;;;4.93;3.88;;;22.70;62.20;;;;;;5053898;28;20474;-51
2021/08/31 02:23:04;;;;;;;5.97;4.00;;;22.70;62.10;;;;;;5052940;28;20454;-48
2021/08/31 02:25:30;;;;;;;5.80;3.95;;;22.70;62.10;;;;;;5053798;28;20478;-48
2021/08/31 02:27:56;;;;;;;4.55;3.75;;;22.70;62.10;;;;;;5053809;28;20033;-48
2021/08/31 02:30:22;;;;;;;4.45;3.42;;;22.70;62.20;;;;;;5052945;28;20045;-51
2021/08/31 02:32:49;;;;;;;4.10;3.47;;;22.70;62.20;;;;;;5053556;28;20029;-48
2021/08/31 02:35:15;;;;;;;4.38;3.60;;;22.70;62.30;;;;;;5052554;28;20021;-51
2021/08/31 02:37:41;;;;;;;6.65;4.03;;;22.70;62.10;;;;;;5053562;28;20091;-48
2021/08/31 02:40:07;;;;;;;4.03;3.58;;;22.70;62.10;;;;;;5053101;28;20397;-48
2021/08/31 02:42:32;;;;;;;5.07;3.67;;;22.70;62.10;;;;;;5053607;28;20067;-49
2021/08/31 02:44:58;;;;;;;5.32;3.80;;;22.70;62.10;;;;;;5052683;28;20033;-51
2021/08/31 02:47:24;;;;;;;4.80;3.47;;;22.70;62.10;;;;;;5053225;28;20121;-51
2021/08/31 02:49:49;;;;;;;4.63;3.90;;;22.70;62.10;;;;;;5053589;28;20038;-49
2021/08/31 02:52:15;;;;;;;4.07;3.45;;;22.70;62.10;;;;;;5052425;28;20561;-50
2021/08/31 02:54:41;;;;;;;6.35;3.85;;;22.70;62.10;;;;;;5053481;28;20082;-51
2021/08/31 02:57:07;;;;;;;4.53;3.97;;;22.70;62.10;;;;;;5052749;28;20044;-50
2021/08/31 02:59:33;;;;;;;4.85;4.20;;;22.70;62.00;;;;;;5053078;28;20052;-51
2021/08/31 03:02:05;;;;;;;6.07;3.88;;;22.70;62.00;;;;;;5051616;28;20041;-53
2021/08/31 03:04:32;;;;;;;4.55;3.70;;;22.70;62.00;;;;;;5052761;28;20044;-49
2021/08/31 03:06:58;;;;;;;5.28;3.40;;;22.70;62.00;;;;;;5051756;28;20059;-50
2021/08/31 03:09:23;;;;;;;5.18;3.47;;;22.70;62.20;;;;;;5049360;28;20021;-48
2021/08/31 03:11:49;;;;;;;4.38;2.92;;;22.70;62.10;;;;;;5051483;28;20025;-48
2021/08/31 03:14:19;;;;;;;5.93;3.75;;;22.70;62.10;;;;;;5050261;28;20055;-48
2021/08/31 03:16:46;;;;;;;6.53;3.33;;;22.70;62.10;;;;;;5050828;28;20053;-52
2021/08/31 03:19:13;;;;;;;3.78;3.13;;;22.70;62.70;;;;;;5050635;28;20025;-50
2021/08/31 03:21:39;;;;;;;3.65;3.13;;;22.70;62.10;;;;;;5051109;28;20025;-46
2021/08/31 03:24:05;;;;;;;3.38;2.92;;;22.70;62.10;;;;;;5050137;28;20481;-51
2021/08/31 03:26:30;;;;;;;5.35;3.60;;;22.80;62.10;;;;;;5051006;28;20068;-48
2021/08/31 03:28:56;;;;;;;3.90;3.10;;;22.70;62.10;;;;;;5051703;28;20033;-48
2021/08/31 03:31:21;;;;;;;4.47;3.13;;;22.80;62.10;;;;;;5051277;28;20032;-47
2021/08/31 03:33:47;;;;;;;4.50;3.45;;;22.70;62.10;;;;;;5052371;28;20029;-47
2021/08/31 03:36:13;;;;;;;4.45;3.70;;;22.70;62.10;;;;;;5051105;28;20115;-47
2021/08/31 03:38:38;;;;;;;5.18;3.30;;;22.70;62.00;;;;;;5052428;28;20024;-50
2021/08/31 03:41:04;;;;;;;3.45;3.15;;;22.70;62.00;;;;;;5051374;28;20352;-48
2021/08/31 03:43:29;;;;;;;6.88;3.95;;;22.80;62.10;;;;;;5052326;28;20029;-49
2021/08/31 03:45:55;;;;;;;5.47;3.30;;;22.80;62.10;;;;;;5052083;28;20071;-48
2021/08/31 03:48:21;;;;;;;4.30;3.00;;;22.80;62.10;;;;;;5051243;28;20450;-49
2021/08/31 03:50:46;;;;;;;4.72;3.50;;;22.70;62.10;;;;;;5052381;28;20060;-49
2021/08/31 03:53:12;;;;;;;3.53;3.20;;;22.70;62.70;;;;;;5051098;28;20052;-50
2021/08/31 03:55:37;;;;;;;4.65;3.30;;;22.70;62.10;;;;;;5051866;28;20031;-50
2021/08/31 03:58:07;;;;;;;4.13;3.50;;;22.70;62.10;;;;;;5051133;28;20447;-53
2021/08/31 04:00:36;;;;;;;4.93;3.33;;;22.70;62.10;;;;;;5051959;28;20063;-49
2021/08/31 04:03:02;;;;;;;4.45;3.20;;;22.80;62.10;;;;;;5051048;28;20485;-48
2021/08/31 04:05:29;;;;;;;4.57;3.45;;;22.80;62.10;;;;;;5051754;28;20025;-48
2021/08/31 04:07:55;;;;;;;4.57;3.90;;;22.70;62.10;;;;;;5051650;28;20048;-49
2021/08/31 04:10:21;;;;;;;3.50;3.20;;;22.70;62.10;;;;;;5050984;28;20112;-49
2021/08/31 04:12:47;;;;;;;3.55;3.15;;;22.70;62.20;;;;;;5051799;28;20021;-47
2021/08/31 04:15:12;;;;;;;3.97;3.35;;;22.70;62.10;;;;;;5050872;28;20036;-48
2021/08/31 04:17:38;;;;;;;4.82;3.58;;;22.80;62.20;;;;;;5051912;28;20036;-48
2021/08/31 04:20:05;;;;;;;3.58;3.25;;;22.70;62.20;;;;;;5050709;28;20028;-52
2021/08/31 04:22:31;;;;;;;3.95;3.20;;;22.70;62.20;;;;;;5051278;28;20025;-50
2021/08/31 04:24:56;;;;;;;4.18;3.28;;;22.70;62.10;;;;;;5051635;28;20032;-49
2021/08/31 04:27:22;;;;;;;3.67;3.20;;;22.70;62.20;;;;;;5049486;28;20166;-48
2021/08/31 04:29:48;;;;;;;3.92;3.13;;;22.70;62.20;;;;;;5051911;28;20056;-49
2021/08/31 04:32:13;;;;;;;3.63;3.15;;;22.70;62.20;;;;;;5050612;28;20463;-49
2021/08/31 04:34:39;;;;;;;4.15;3.35;;;22.70;62.20;;;;;;5051573;28;20522;-51
2021/08/31 04:37:05;;;;;;;4.10;3.28;;;22.70;62.20;;;;;;5050987;28;20025;-51
2021/08/31 04:39:30;;;;;;;6.43;3.60;;;22.70;62.20;;;;;;5051456;28;20025;-50
2021/08/31 04:42:02;;;;;;;3.80;3.10;;;22.70;62.20;;;;;;5051550;28;20454;-51
2021/08/31 04:44:31;;;;;;;6.45;3.78;;;22.70;62.20;;;;;;5050891;28;20052;-47
2021/08/31 04:46:56;;;;;;;4.55;3.80;;;22.70;62.20;;;;;;5051048;28;20041;-49
2021/08/31 04:49:22;;;;;;;5.47;3.50;;;22.70;62.10;;;;;;5049985;28;20603;-51
2021/08/31 04:51:48;;;;;;;4.15;3.38;;;22.70;62.10;;;;;;5051504;28;20104;-51
2021/08/31 04:54:13;;;;;;;4.10;3.55;;;22.70;62.10;;;;;;5050467;28;20025;-50
2021/08/31 04:56:39;;;;;;;3.80;3.28;;;22.70;62.10;;;;;;5050722;28;20445;-49
2021/08/31 04:59:05;;;;;;;3.78;3.25;;;22.70;62.10;;;;;;5049708;28;20029;-51
2021/08/31 05:01:30;;;;;;;4.25;3.50;;;22.70;62.10;;;;;;5051393;28;20053;-49
2021/08/31 05:03:56;;;;;;;4.93;3.58;;;22.70;62.10;;;;;;5051157;28;20383;-50
2021/08/31 05:06:22;;;;;;;4.53;3.30;;;22.70;62.10;;;;;;5050074;28;20041;-49
2021/08/31 05:08:47;;;;;;;4.45;2.78;;;22.70;62.10;;;;;;5049911;28;20025;-48
2021/08/31 05:11:13;;;;;;;4.45;3.75;;;22.70;62.10;;;;;;5050685;28;20036;-52
2021/08/31 05:13:41;;;;;;;5.43;3.53;;;22.70;62.10;;;;;;5050903;28;20060;-49
2021/08/31 05:16:12;;;;;;;4.22;3.42;;;22.70;62.10;;;;;;5050444;28;20386;-50
2021/08/31 05:18:37;;;;;;;3.95;3.33;;;22.70;62.10;;;;;;5051330;28;20421;-51
2021/08/31 05:21:06;;;;;;;4.28;3.72;;;22.70;62.10;;;;;;5051221;28;20033;-53
2021/08/31 05:23:32;;;;;;;4.03;3.28;;;22.70;62.10;;;;;;5051064;28;20040;-53
2021/08/31 05:25:59;;;;;;;3.80;3.20;;;22.70;62.20;;;;;;5051206;28;20041;-50
2021/08/31 05:28:24;;;;;;;3.85;3.33;;;22.70;62.10;;;;;;5049943;28;20092;-51
2021/08/31 05:30:50;;;;;;;3.92;3.40;;;22.70;62.10;;;;;;5050732;28;20226;-49
2021/08/31 05:33:16;;;;;;;5.03;3.10;;;22.70;62.10;;;;;;5053185;28;20059;-50
2021/08/31 05:35:42;;;;;;;4.07;2.95;;;22.70;62.10;;;;;;5054312;28;20512;-51
2021/08/31 05:38:08;;;;;;;4.97;4.00;;;22.70;62.10;;;;;;5053534;28;20021;-51
2021/08/31 05:40:33;;;;;;;4.75;3.30;;;22.70;62.10;;;;;;5054499;28;20422;-51
2021/08/31 05:42:59;;;;;;;5.35;3.80;;;22.70;62.10;;;;;;5054558;28;20175;-52
2021/08/31 05:45:25;;;;;;;4.80;3.50;;;22.70;62.10;;;;;;5053752;28;20610;-48
2021/08/31 05:47:50;;;;;;;4.78;3.28;;;22.70;62.10;;;;;;5052801;28;20128;-51
2021/08/31 05:50:16;;;;;;;5.00;3.40;;;22.70;62.10;;;;;;5053377;28;20051;-48
2021/08/31 05:52:42;;;;;;;4.65;3.70;;;22.70;62.10;;;;;;5053967;28;20108;-52
2021/08/31 05:55:09;;;;;;;5.13;3.60;;;22.70;62.20;;;;;;5049204;28;20029;-53
2021/08/31 05:57:36;;;;;;;3.22;2.70;;;22.70;62.20;;;;;;5053051;28;20521;-48
2021/08/31 06:00:02;;;;;;;4.47;3.42;;;22.70;62.20;;;;;;5054153;28;20055;-49
2021/08/31 06:02:28;;;;;;;3.72;3.10;;;22.70;62.10;;;;;;5052828;28;20029;-48
2021/08/31 06:04:54;;;;;;;7.30;3.50;;;22.70;62.20;;;;;;5053660;28;20048;-53
2021/08/31 06:07:20;;;;;;;4.15;3.03;;;22.80;62.40;;;;;;5052685;28;20391;-52
2021/08/31 06:09:46;;;;;;;5.00;3.50;;;22.80;62.50;;;;;;5053922;28;20449;-49
2021/08/31 06:12:12;;;;;;;7.68;2.70;;;22.80;62.50;;;;;;5052763;28;20036;-50
2021/08/31 06:14:40;;;;;;;7.13;2.95;;;22.90;63.00;;;;;;5054094;28;20486;-48
2021/08/31 06:17:06;;;;;;;5.82;2.83;;;22.90;63.10;;;;;;5053610;28;20033;-52
2021/08/31 06:19:33;;;;;;;11.10;3.80;;;22.90;63.00;;;;;;5052963;28;20051;-49
2021/08/31 06:21:58;;;;;;;7.63;3.38;;;22.90;64.20;;;;;;5053746;28;20029;-49
2021/08/31 06:24:25;;;;;;;16.08;3.85;;;22.90;64.00;;;;;;5052159;28;20814;-49
2021/08/31 06:26:50;;;;;;;7.93;3.28;;;23.00;63.80;;;;;;5053353;28;20033;-49
2021/08/31 06:29:16;;;;;;;10.05;3.65;;;23.00;63.80;;;;;;5051770;28;20389;-52
2021/08/31 06:31:42;;;;;;;9.70;4.35;;;23.00;64.30;;;;;;5053415;28;20081;-50
2021/08/31 06:34:07;;;;;;;4.32;2.90;;;23.00;64.30;;;;;;5052803;28;20017;-50
2021/08/31 06:36:33;;;;;;;4.82;2.92;;;22.90;64.00;;;;;;5053452;28;20029;-52
2021/08/31 06:38:59;;;;;;;11.65;3.30;;;22.90;64.10;;;;;;5053362;28;20029;-47
2021/08/31 06:41:25;;;;;;;7.88;3.30;;;23.00;64.10;;;;;;5052171;28;20780;-52
2021/08/31 06:43:51;;;;;;;9.32;3.33;;;22.90;64.60;;;;;;5051927;28;20071;-51
2021/08/31 06:46:16;;;;;;;9.07;4.20;;;22.90;64.30;;;;;;5052253;28;20466;-50
2021/08/31 06:48:43;;;;;;;9.82;4.15;;;22.90;64.00;;;;;;5046169;28;20104;-53
2021/08/31 06:51:13;;;;;;;7.95;3.78;;;22.90;63.50;;;;;;5051424;28;20424;-52
2021/08/31 06:53:40;;;;;;;6.95;3.95;;;22.80;64.00;;;;;;5051801;28;20032;-54
2021/08/31 06:56:06;;;;;;;8.77;3.65;;;22.80;64.40;;;;;;5053168;28;20036;-48
2021/08/31 06:58:32;;;;;;;22.98;3.50;;;22.80;64.40;;;;;;5052140;28;20049;-52
2021/08/31 07:00:58;;;;;;;6.30;3.50;;;22.80;64.50;;;;;;5052456;28;20055;-51
2021/08/31 07:03:23;;;;;;;5.75;3.72;;;22.80;64.50;;;;;;5052386;28;20029;-54
2021/08/31 07:05:49;;;;;;;13.13;3.58;;;22.80;64.50;;;;;;5052990;28;20021;-53
2021/08/31 07:08:15;;;;;;;7.00;3.13;;;22.80;64.40;;;;;;5049331;28;20039;-53
2021/08/31 07:10:41;;;;;;;5.07;3.58;;;22.80;64.50;;;;;;5052291;28;20099;-50
2021/08/31 07:13:07;;;;;;;6.82;3.55;;;22.70;64.30;;;;;;5052526;28;20021;-52
2021/08/31 07:15:32;;;;;;;6.13;2.92;;;22.80;64.30;;;;;;5052226;28;20033;-49
2021/08/31 07:17:58;;;;;;;4.80;3.33;;;22.70;64.30;;;;;;5051719;28;20065;-51
2021/08/31 07:20:24;;;;;;;5.80;3.00;;;22.70;64.80;;;;;;5047560;28;20025;-53
2021/08/31 07:22:50;;;;;;;6.53;3.53;;;22.80;64.30;;;;;;5051145;28;20429;-52
2021/08/31 07:25:16;;;;;;;8.20;3.72;;;22.80;64.30;;;;;;5051858;28;20434;-50
2021/08/31 07:27:42;;;;;;;8.75;5.13;;;22.70;64.20;;;;;;5045496;28;20029;-52
2021/08/31 07:30:09;;;;;;;6.70;3.80;;;22.80;64.20;;;;;;5051384;28;20025;-51
2021/08/31 07:32:35;;;;;;;6.45;3.40;;;22.70;64.10;;;;;;5052178;28;20044;-49
2021/08/31 07:35:01;;;;;;;5.47;3.53;;;22.70;64.00;;;;;;5052461;28;20123;-54
2021/08/31 07:37:26;;;;;;;4.50;3.63;;;22.70;64.00;;;;;;5051324;28;20111;-49
2021/08/31 07:39:52;;;;;;;6.03;3.80;;;22.70;63.90;;;;;;5052237;28;20436;-52
2021/08/31 07:42:18;;;;;;;7.18;4.28;;;22.70;63.80;;;;;;5051566;28;20025;-51
2021/08/31 07:44:43;;;;;;;7.22;3.67;;;22.70;63.70;;;;;;5048135;28;20029;-51
2021/08/31 07:47:09;;;;;;;5.18;3.53;;;22.70;63.60;;;;;;5051516;28;20358;-53
2021/08/31 07:49:35;;;;;;;6.82;4.20;;;22.70;63.50;;;;;;5050413;28;20013;-50
2021/08/31 07:52:01;;;;;;;5.40;3.40;;;22.70;63.40;;;;;;5052132;28;20028;-52
2021/08/31 07:54:27;;;;;;;5.53;3.78;;;22.70;63.30;;;;;;5049851;28;20048;-50
2021/08/31 07:56:53;;;;;;;7.97;3.53;;;22.70;63.30;;;;;;5052485;28;20470;-53
2021/08/31 07:59:18;;;;;;;7.20;3.70;;;22.70;63.60;;;;;;5051632;28;20597;-50
2021/08/31 08:01:44;;;;;;;7.43;3.47;;;22.70;63.50;;;;;;5048613;28;20082;-51
2021/08/31 08:04:10;;;;;;;5.07;3.38;;;22.70;63.50;;;;;;5051527;28;20414;-52
2021/08/31 08:06:36;;;;;;;4.25;3.50;;;22.70;63.10;;;;;;5051737;28;20432;-51
2021/08/31 08:09:03;;;;;;;4.70;3.45;;;22.70;63.00;;;;;;5051620;28;20025;-52
2021/08/31 08:11:29;;;;;;;4.90;3.85;;;22.70;63.00;;;;;;5049466;28;20339;-52
2021/08/31 08:13:54;;;;;;;5.55;3.80;;;22.70;62.90;;;;;;5052056;28;20051;-54
2021/08/31 08:16:20;;;;;;;5.05;3.67;;;22.70;62.80;;;;;;5051451;28;20124;-53
2021/08/31 08:18:47;;;;;;;5.93;3.63;;;22.70;62.80;;;;;;5049942;28;20033;-52
2021/08/31 08:21:13;;;;;;;4.03;3.58;;;22.70;62.70;;;;;;5048033;28;20052;-51
2021/08/31 08:23:39;;;;;;;5.55;3.33;;;22.70;62.60;;;;;;5045483;28;20025;-50
2021/08/31 08:26:06;;;;;;;5.03;3.28;;;22.70;62.60;;;;;;5049754;28;20036;-53
2021/08/31 08:28:33;;;;;;;4.30;3.13;;;22.70;62.60;;;;;;5045231;28;20040;-50
2021/08/31 08:30:58;;;;;;;5.55;3.00;;;22.70;62.70;;;;;;5047251;28;20063;-51
2021/08/31 08:33:24;;;;;;;6.25;4.07;;;22.70;62.60;;;;;;5051353;28;20021;-52
2021/08/31 08:35:50;;;;;;;4.75;3.97;;;22.70;62.40;;;;;;5049942;28;20025;-53
2021/08/31 08:38:17;;;;;;;5.97;3.42;;;22.70;62.40;;;;;;5049100;28;20506;-52
2021/08/31 08:40:43;;;;;;;4.95;3.17;;;22.70;62.40;;;;;;5044828;28;20033;-51
2021/08/31 08:43:09;;;;;;;4.40;3.13;;;22.70;62.30;;;;;;5043406;28;20029;-52
2021/08/31 08:45:34;;;;;;;4.35;3.50;;;22.80;62.30;;;;;;5046272;28;20032;-54
2021/08/31 08:48:00;;;;;;;3.83;3.17;;;22.70;62.20;;;;;;5046163;28;20044;-52
2021/08/31 08:50:28;;;;;;;5.00;3.65;;;22.70;62.10;;;;;;5048141;28;20100;-53
2021/08/31 08:52:54;;;;;;;5.40;3.80;;;22.70;62.00;;;;;;5048561;28;20021;-53
2021/08/31 08:55:24;;;;;;;4.30;3.10;;;22.80;62.00;;;;;;5042189;28;20091;-52
2021/08/31 08:57:50;;;;;;;4.78;3.35;;;22.70;62.10;;;;;;5044429;28;20082;-50
2021/08/31 09:00:18;;;;;;;6.10;3.78;;;22.70;62.50;;;;;;5041314;28;20120;-53
2021/08/31 09:02:44;;;;;;;5.80;3.17;;;22.80;62.20;;;;;;5046257;28;20449;-50
2021/08/31 09:05:30;;;;;;;3.20;2.90;;;22.80;62.00;;;;;;5044284;28;20024;-51
2021/08/31 09:08:05;;;;;;;5.07;3.10;;;22.80;62.00;;;;;;5040477;28;20126;-53
2021/08/31 09:10:31;;;;;;;4.47;3.70;;;22.80;62.20;;;;;;5054201;28;20028;-53
2021/08/31 09:12:57;;;;;;;3.45;2.70;;;22.80;62.40;;;;;;5055007;28;20029;-52
2021/08/31 09:15:32;;;;;;;5.90;3.25;;;22.80;62.30;;;;;;5053961;28;20017;-52
2021/08/31 09:18:07;;;;;;;6.00;3.25;;;22.80;62.10;;;;;;5054143;28;20135;-52
2021/08/31 09:20:54;;;;;;;5.47;3.15;;;22.80;62.20;;;;;;5053937;28;20031;-52
2021/08/31 09:23:22;;;;;;;4.57;3.22;;;22.80;62.10;;;;;;5054109;28;20086;-53
2021/08/31 09:25:51;;;;;;;5.35;3.33;;;22.80;61.90;;;;;;5054313;28;20379;-52
2021/08/31 09:28:19;;;;;;;6.03;3.40;;;22.80;62.00;;;;;;5054522;28;20029;-52
2021/08/31 09:30:45;;;;;;;4.25;3.03;;;22.80;61.90;;;;;;5060031;28;20063;-52
2021/08/31 09:33:15;;;;;;;4.85;3.25;;;22.80;62.00;;;;;;5060329;28;20466;-52
2021/08/31 09:35:44;;;;;;;6.43;3.17;;;22.80;61.90;;;;;;5052800;28;20069;-52
2021/08/31 09:38:12;;;;;;;5.40;3.00;;;22.90;61.80;;;;;;5053640;28;20086;-53
2021/08/31 09:40:47;;;;;;;4.68;3.25;;;22.80;61.80;;;;;;5051880;28;20025;-54
2021/08/31 09:43:18;;;;;;;3.97;2.97;;;22.80;61.70;;;;;;5053497;28;20032;-53
2021/08/31 09:45:46;;;;;;;3.85;2.85;;;22.80;61.70;;;;;;5052707;28;20048;-53
2021/08/31 09:48:14;;;;;;;4.05;2.80;;;22.90;61.70;;;;;;5052879;28;20521;-49
2021/08/31 09:50:45;;;;;;;3.70;2.85;;;22.90;61.70;;;;;;5052925;28;20029;-48
2021/08/31 09:53:14;;;;;;;4.35;3.10;;;22.90;61.80;;;;;;5053933;28;20039;-52
2021/08/31 09:55:49;;;;;;;4.25;2.90;;;22.80;61.60;;;;;;5046946;28;20025;-51
2021/08/31 09:58:24;;;;;;;3.20;2.88;;;22.90;61.60;;;;;;5053130;28;20039;-52
2021/08/31 10:00:52;;;;;;;5.35;3.15;;;22.80;62.10;;;;;;5051596;28;20056;-50
2021/08/31 10:03:18;;;;;;;4.03;3.33;;;22.80;61.40;;;;;;5053278;28;20029;-53
2021/08/31 10:05:46;;;;;;;3.17;2.78;;;22.90;61.30;;;;;;5049042;28;20285;-53
2021/08/31 10:08:12;;;;;;;4.22;3.38;;;22.80;61.40;;;;;;5052372;28;20059;-50
2021/08/31 10:10:40;;;;;;;5.15;3.00;;;22.80;61.40;;;;;;5052212;28;20040;-49
2021/08/31 10:13:11;;;;;;;5.13;3.08;;;22.80;61.40;;;;;;5052190;28;20497;-51
2021/08/31 10:15:40;;;;;;;5.72;3.47;;;22.80;61.40;;;;;;5051823;28;20429;-53
2021/08/31 10:18:09;;;;;;;5.53;3.13;;;22.80;61.50;;;;;;5051478;28;20112;-54
2021/08/31 10:20:36;;;;;;;3.28;2.88;;;22.80;61.20;;;;;;5052017;28;20387;-50
2021/08/31 10:23:03;;;;;;;4.13;2.90;;;22.80;61.20;;;;;;5052514;28;20033;-54
2021/08/31 10:25:28;;;;;;;3.63;2.95;;;22.90;61.90;;;;;;5051770;28;20033;-53
2021/08/31 10:27:55;;;;;;;3.78;2.72;;;22.90;61.40;;;;;;5052683;28;20036;-52
2021/08/31 10:30:21;;;;;;;3.83;2.80;;;22.90;61.20;;;;;;5052444;28;20366;-53
2021/08/31 10:32:53;;;;;;;3.17;2.67;;;22.80;61.10;;;;;;5051641;28;20029;-52
2021/08/31 10:35:43;;;;;;;;;;;22.80;61.20;;;;;;5051093;28;20050;-51
2021/08/31 10:38:10;;;;;;;2.80;2.22;;;22.90;61.30;;;;;;5049274;28;19909;-49
2021/08/31 10:40:39;;;;;;;3.30;2.65;;;22.90;61.20;;;;;;5040220;28;20079;-51
2021/08/31 10:43:19;;;;;;;3.58;2.90;;;22.90;61.10;;;;;;5050478;28;20029;-53
2021/08/31 10:45:58;;;;;;;4.90;3.22;;;22.90;61.40;;;;;;5052050;28;20029;-50
2021/08/31 10:48:24;;;;;;;5.10;3.17;;;22.90;60.90;;;;;;5051412;28;20421;-50
2021/08/31 10:51:01;;;;;;;4.97;3.00;;;22.90;60.60;;;;;;5051549;28;20044;-52
2021/08/31 10:53:40;;;;;;;4.72;2.60;;;22.90;60.70;;;;;;5051541;28;20467;-51
2021/08/31 10:56:25;;;;;;;4.60;3.15;;;22.90;60.50;;;;;;5052266;28;20489;-49
2021/08/31 10:58:58;;;;;;;4.60;2.92;;;22.90;60.90;;;;;;5051108;28;20025;-53
2021/08/31 11:01:34;;;;;;;3.53;2.90;;;22.80;60.60;;;;;;5051434;28;20074;-52
2021/08/31 11:04:00;;;;;;;4.68;3.45;;;22.80;60.40;;;;;;5047597;28;20029;-51
2021/08/31 11:06:34;;;;;;;3.83;2.88;;;22.90;60.30;;;;;;5051237;28;20086;-53
2021/08/31 11:09:12;;;;;;;3.05;2.70;;;22.80;60.80;;;;;;5052438;28;20064;-49
2021/08/31 11:11:40;;;;;;;3.55;2.80;;;22.80;60.40;;;;;;5050766;28;20029;-48
2021/08/31 11:14:06;;;;;;;4.70;2.85;;;22.80;60.60;;;;;;5052294;28;20029;-53
2021/08/31 11:16:36;;;;;;;3.10;2.80;;;22.80;60.20;;;;;;5050821;28;20033;-53
2021/08/31 11:19:03;;;;;;;3.70;2.75;;;22.80;60.20;;;;;;5052323;28;20040;-54
2021/08/31 11:21:29;;;;;;;4.82;2.72;;;22.80;60.30;;;;;;5050801;28;20043;-53
2021/08/31 11:24:07;;;;;;;2.90;2.60;;;22.90;60.60;;;;;;5051627;28;20096;-50
2021/08/31 11:26:32;;;;;;;3.70;2.90;;;22.80;60.60;;;;;;5050638;28;20036;-51
2021/08/31 11:29:09;;;;;;;2.97;2.60;;;22.80;60.70;;;;;;5051251;28;20486;-50
2021/08/31 11:31:36;;;;;;;3.63;3.00;;;22.80;60.70;;;;;;5050901;28;20032;-51
2021/08/31 11:34:02;;;;;;;2.78;2.50;;;22.80;60.90;;;;;;5051414;28;20028;-54
2021/08/31 11:36:31;;;;;;;3.00;2.70;;;22.80;60.90;;;;;;5050690;28;20040;-53
2021/08/31 11:39:01;;;;;;;4.47;2.70;;;22.80;60.90;;;;;;5051697;28;20422;-51
2021/08/31 11:41:40;;;;;;;3.35;2.92;;;22.80;60.90;;;;;;5051051;28;20021;-52
2021/08/31 11:44:14;;;;;;;3.75;2.95;;;22.80;60.80;;;;;;5051511;28;20029;-53
2021/08/31 11:46:54;;;;;;;3.75;3.00;;;22.80;60.80;;;;;;5050729;28;20524;-54
2021/08/31 11:49:25;;;;;;;3.10;2.80;;;22.80;60.90;;;;;;5051420;28;20025;-52
2021/08/31 11:51:56;;;;;;;4.07;3.05;;;22.80;60.80;;;;;;5050707;28;20386;-51
2021/08/31 11:54:24;;;;;;;5.55;3.03;;;22.90;60.90;;;;;;5050499;28;20029;-53
2021/08/31 11:56:58;;;;;;;3.22;2.58;;;22.90;60.60;;;;;;5050258;28;20075;-51
2021/08/31 11:59:34;;;;;;;4.00;3.17;;;22.80;60.90;;;;;;5050950;28;20032;-53
2021/08/31 12:02:11;;;;;;;6.25;2.40;;;22.90;60.70;;;;;;5051280;28;20082;-50
2021/08/31 12:04:37;;;;;;;3.80;2.88;;;22.90;60.40;;;;;;5050294;28;20044;-49
2021/08/31 12:07:03;;;;;;;3.45;3.03;;;22.80;60.90;;;;;;5049647;28;20478;-52
2021/08/31 12:09:31;;;;;;;3.55;2.95;;;22.90;60.20;;;;;;5048935;28;20537;-53
2021/08/31 12:11:56;;;;;;;3.22;2.60;;;22.90;60.30;;;;;;5051022;28;20036;-53
2021/08/31 12:14:22;;;;;;;3.88;2.70;;;22.90;60.30;;;;;;5049697;28;20556;-53
2021/08/31 12:16:49;;;;;;;3.65;2.83;;;22.90;60.70;;;;;;5049883;28;20611;-49
2021/08/31 12:19:19;;;;;;;4.22;2.92;;;22.90;60.20;;;;;;5051193;28;20049;-49
2021/08/31 12:22:11;;;;;;;6.72;3.22;;;22.90;60.70;;;;;;5042327;28;20022;-51
2021/08/31 12:24:38;;;;;;;5.05;3.28;;;22.80;60.00;;;;;;5049990;28;20029;-51
2021/08/31 12:27:06;;;;;;;3.60;2.60;;;22.90;60.50;;;;;;5050641;28;20122;-50
2021/08/31 12:29:53;;;;;;;4.18;2.80;;;22.80;60.40;;;;;;5049220;28;20478;-48
2021/08/31 12:32:30;;;;;;;3.80;2.85;;;22.90;60.40;;;;;;5050194;28;20053;-52
2021/08/31 12:35:23;;;;;;;3.92;3.10;;;22.90;60.40;;;;;;5050014;28;20075;-50
2021/08/31 12:38:03;;;;;;;3.30;2.70;;;22.90;60.40;;;;;;5042983;28;20044;-51
2021/08/31 12:40:29;;;;;;;4.30;2.60;;;22.90;60.60;;;;;;5050252;28;20025;-50
2021/08/31 12:43:04;;;;;;;4.15;2.50;;;22.90;60.80;;;;;;5053923;28;20086;-50
2021/08/31 12:45:30;;;;;;;3.40;2.55;;;22.90;60.60;;;;;;5054624;28;20029;-53
2021/08/31 12:47:58;;;;;;;3.60;2.90;;;22.90;60.40;;;;;;5065357;28;20037;-49
2021/08/31 12:50:25;;;;;;;3.75;2.92;;;22.90;60.70;;;;;;5051230;28;20065;-48